createdAt,value
2022-12-25T00:00:24.391Z,1004.88
2022-12-25T00:01:24.345Z,1004.9
2022-12-25T00:02:24.366Z,1004.92
2022-12-25T00:03:24.453Z,1004.9
2022-12-25T00:04:24.348Z,1004.94
2022-12-25T00:05:24.344Z,1004.93
2022-12-25T00:06:24.338Z,1004.94
2022-12-25T00:07:24.494Z,1004.94
2022-12-25T00:08:24.569Z,1004.94
2022-12-25T00:09:24.360Z,1004.9
2022-12-25T00:10:24.583Z,1004.92
2022-12-25T00:11:24.591Z,1004.96
2022-12-25T00:12:24.486Z,1004.97
2022-12-25T00:13:24.757Z,1005.03
2022-12-25T00:14:24.696Z,1005.03
2022-12-25T00:15:24.708Z,1005.08
2022-12-25T00:16:24.646Z,1005.06
2022-12-25T00:17:24.871Z,1005.1
2022-12-25T00:18:24.808Z,1005.16
2022-12-25T00:19:24.433Z,1005.13
2022-12-25T00:20:24.701Z,1005.09
2022-12-25T00:21:24.918Z,1005.11
2022-12-25T00:22:25.237Z,1005.14
2022-12-25T00:23:24.465Z,1005.16
2022-12-25T00:24:24.756Z,1005.17
2022-12-25T00:25:24.591Z,1005.21
2022-12-25T00:26:24.841Z,1005.18
2022-12-25T00:27:24.549Z,1005.2
2022-12-25T00:28:24.608Z,1005.21
2022-12-25T00:29:24.414Z,1005.2
2022-12-25T00:30:24.667Z,1005.21
2022-12-25T00:31:24.963Z,1005.26
2022-12-25T00:32:24.346Z,1005.26
2022-12-25T00:33:24.367Z,1005.27
2022-12-25T00:34:24.431Z,1005.3
2022-12-25T00:35:24.347Z,1005.31
2022-12-25T00:36:24.349Z,1005.26
2022-12-25T00:37:24.462Z,1005.22
2022-12-25T00:38:24.349Z,1005.26
2022-12-25T00:39:24.335Z,1005.21
2022-12-25T00:40:24.335Z,1005.24
2022-12-25T00:41:24.337Z,1005.25
2022-12-25T00:42:24.356Z,1005.26
2022-12-25T00:43:24.341Z,1005.28
2022-12-25T00:44:24.337Z,1005.34
2022-12-25T00:45:24.382Z,1005.31
2022-12-25T00:46:24.569Z,1005.32
2022-12-25T00:47:24.617Z,1005.33
2022-12-25T00:48:24.347Z,1005.28
2022-12-25T00:49:24.668Z,1005.28
2022-12-25T00:50:24.432Z,1005.25
2022-12-25T00:51:24.669Z,1005.23
2022-12-25T00:52:24.423Z,1005.26
2022-12-25T00:53:24.349Z,1005.27
2022-12-25T00:54:24.563Z,1005.29
2022-12-25T00:55:24.785Z,1005.27
2022-12-25T00:56:24.524Z,1005.24
2022-12-25T00:57:24.400Z,1005.24
2022-12-25T00:58:24.335Z,1005.21
2022-12-25T00:59:24.368Z,1005.19
2022-12-25T01:00:24.593Z,1005.19
2022-12-25T01:01:24.509Z,1005.14
2022-12-25T01:02:24.524Z,1005.17
2022-12-25T01:03:24.701Z,1005.16
2022-12-25T01:04:24.364Z,1005.19
2022-12-25T01:05:24.357Z,1005.2
2022-12-25T01:06:24.341Z,1005.26
2022-12-25T01:07:24.342Z,1005.28
2022-12-25T01:08:24.361Z,1005.28
2022-12-25T01:09:24.338Z,1005.31
2022-12-25T01:10:24.333Z,1005.25
2022-12-25T01:11:24.347Z,1005.21
2022-12-25T01:12:24.339Z,1005.26
2022-12-25T01:13:24.362Z,1005.21
2022-12-25T01:14:24.368Z,1005.17
2022-12-25T01:15:24.358Z,1005.22
2022-12-25T01:16:24.369Z,1005.2
2022-12-25T01:17:24.341Z,1005.2
2022-12-25T01:18:24.371Z,1005.22
2022-12-25T01:19:24.344Z,1005.25
2022-12-25T01:20:24.511Z,1005.21
2022-12-25T01:21:24.342Z,1005.17
2022-12-25T01:22:24.340Z,1005.19
2022-12-25T01:23:24.380Z,1005.21
2022-12-25T01:24:24.353Z,1005.22
2022-12-25T01:25:24.357Z,1005.2
2022-12-25T01:26:24.342Z,1005.18
2022-12-25T01:27:24.346Z,1005.19
2022-12-25T01:28:24.364Z,1005.19
2022-12-25T01:29:24.358Z,1005.14
2022-12-25T01:30:24.339Z,1005.16
2022-12-25T01:31:24.435Z,1005.16
2022-12-25T01:32:24.347Z,1005.15
2022-12-25T01:33:24.367Z,1005.12
2022-12-25T01:34:24.365Z,1005.12
2022-12-25T01:35:24.555Z,1005.08
2022-12-25T01:36:24.330Z,1005.08
2022-12-25T01:37:24.343Z,1005.11
2022-12-25T01:38:24.346Z,1005.11
2022-12-25T01:39:24.334Z,1005.12
2022-12-25T01:40:24.346Z,1005.12
2022-12-25T01:41:24.343Z,1005.17
2022-12-25T01:42:24.340Z,1005.18
2022-12-25T01:43:24.343Z,1005.23
2022-12-25T01:44:24.346Z,1005.22
2022-12-25T01:45:24.424Z,1005.23
2022-12-25T01:46:24.388Z,1005.21
2022-12-25T01:47:24.433Z,1005.23
2022-12-25T01:48:24.343Z,1005.23
2022-12-25T01:49:24.335Z,1005.25
2022-12-25T01:50:24.338Z,1005.24
2022-12-25T01:51:24.339Z,1005.18
2022-12-25T01:52:27.352Z,1005.14
2022-12-25T01:53:24.342Z,1005.1
2022-12-25T01:54:24.337Z,1005.09
2022-12-25T01:55:24.354Z,1005.08
2022-12-25T01:56:24.339Z,1005.13
2022-12-25T01:57:24.341Z,1005.13
2022-12-25T01:58:24.552Z,1005.19
2022-12-25T01:59:24.342Z,1005.19
2022-12-25T02:00:24.477Z,1005.16
2022-12-25T02:01:24.434Z,1005.13
2022-12-25T02:02:24.456Z,1005.16
2022-12-25T02:03:24.441Z,1005.09
2022-12-25T02:04:24.349Z,1005.04
2022-12-25T02:05:24.342Z,1005.02
2022-12-25T02:06:25.538Z,1004.98
2022-12-25T02:07:24.412Z,1004.98
2022-12-25T02:08:24.699Z,1004.97
2022-12-25T02:09:24.075Z,1004.9
2022-12-25T02:10:24.241Z,1004.92
2022-12-25T02:11:24.519Z,1004.86
2022-12-25T02:12:24.792Z,1004.85
2022-12-25T02:13:24.060Z,1004.84
2022-12-25T02:14:24.347Z,1004.83
2022-12-25T02:15:24.752Z,1004.79
2022-12-25T02:16:24.130Z,1004.81
2022-12-25T02:17:24.342Z,1004.85
2022-12-25T02:18:24.597Z,1004.86
2022-12-25T02:19:24.839Z,1004.82
2022-12-25T02:20:24.521Z,1004.82
2022-12-25T02:21:24.801Z,1004.86
2022-12-25T02:22:24.344Z,1004.83
2022-12-25T02:23:24.342Z,1004.85
2022-12-25T02:24:24.402Z,1004.87
2022-12-25T02:25:24.353Z,1004.89
2022-12-25T02:26:24.452Z,1004.91
2022-12-25T02:27:24.398Z,1004.83
2022-12-25T02:28:24.391Z,1004.88
2022-12-25T02:29:24.410Z,1004.87
2022-12-25T02:30:24.350Z,1004.84
2022-12-25T02:31:24.624Z,1004.85
2022-12-25T02:32:24.341Z,1004.84
2022-12-25T02:33:24.343Z,1004.88
2022-12-25T02:34:24.356Z,1004.84
2022-12-25T02:35:24.344Z,1004.85
2022-12-25T02:36:24.576Z,1004.85
2022-12-25T02:37:24.339Z,1004.83
2022-12-25T02:38:24.348Z,1004.82
2022-12-25T02:39:24.423Z,1004.86
2022-12-25T02:40:24.338Z,1004.82
2022-12-25T02:41:24.369Z,1004.89
2022-12-25T02:42:24.342Z,1004.91
2022-12-25T02:43:24.349Z,1004.91
2022-12-25T02:44:24.461Z,1004.9
2022-12-25T02:45:24.349Z,1004.89
2022-12-25T02:46:24.429Z,1004.93
2022-12-25T02:47:24.347Z,1004.86
2022-12-25T02:48:24.354Z,1004.95
2022-12-25T02:49:24.349Z,1004.97
2022-12-25T02:50:24.336Z,1004.95
2022-12-25T02:51:24.341Z,1004.99
2022-12-25T02:52:24.346Z,1004.99
2022-12-25T02:53:24.373Z,1004.97
2022-12-25T02:54:24.343Z,1005.02
2022-12-25T02:55:24.357Z,1005.02
2022-12-25T02:56:24.364Z,1004.99
2022-12-25T02:57:24.346Z,1005.04
2022-12-25T02:58:24.375Z,1005.02
2022-12-25T02:59:24.336Z,1005.04
2022-12-25T03:00:24.355Z,1005.04
2022-12-25T03:01:24.712Z,1005.03
2022-12-25T03:02:24.356Z,1005.03
2022-12-25T03:03:24.439Z,1005.05
2022-12-25T03:04:24.383Z,1005.06
2022-12-25T03:05:24.342Z,1005.05
2022-12-25T03:06:24.376Z,1005.06
2022-12-25T03:07:24.340Z,1005.03
2022-12-25T03:08:24.348Z,1005.04
2022-12-25T03:09:24.385Z,1005.02
2022-12-25T03:10:24.348Z,1004.95
2022-12-25T03:11:24.362Z,1004.96
2022-12-25T03:12:24.431Z,1004.96
2022-12-25T03:13:24.344Z,1005
2022-12-25T03:14:24.363Z,1004.96
2022-12-25T03:15:24.338Z,1005.02
2022-12-25T03:16:24.393Z,1004.99
2022-12-25T03:17:24.350Z,1005.04
2022-12-25T03:18:24.431Z,1005.01
2022-12-25T03:19:24.366Z,1004.99
2022-12-25T03:20:24.374Z,1004.97
2022-12-25T03:21:24.352Z,1004.93
2022-12-25T03:22:24.339Z,1004.94
2022-12-25T03:23:24.401Z,1004.97
2022-12-25T03:24:24.488Z,1005
2022-12-25T03:25:24.340Z,1004.95
2022-12-25T03:26:24.345Z,1004.99
2022-12-25T03:27:24.350Z,1004.95
2022-12-25T03:28:24.599Z,1004.99
2022-12-25T03:29:31.919Z,1005
2022-12-25T03:30:24.341Z,1005.01
2022-12-25T03:31:24.514Z,1005.04
2022-12-25T03:32:24.615Z,1005.02
2022-12-25T03:33:44.853Z,1005.01
2022-12-25T03:34:24.361Z,1005.03
2022-12-25T03:35:24.355Z,1005.05
2022-12-25T03:36:24.361Z,1005.03
2022-12-25T03:37:24.348Z,1005.08
2022-12-25T03:38:24.343Z,1005.07
2022-12-25T03:39:24.615Z,1005.03
2022-12-25T03:40:24.523Z,1005.02
2022-12-25T03:41:24.338Z,1004.96
2022-12-25T03:42:24.621Z,1004.94
2022-12-25T03:43:24.341Z,1004.95
2022-12-25T03:44:24.626Z,1004.97
2022-12-25T03:45:24.416Z,1004.92
2022-12-25T03:46:24.528Z,1004.86
2022-12-25T03:47:24.460Z,1004.85
2022-12-25T03:48:24.341Z,1004.85
2022-12-25T03:49:24.547Z,1004.81
2022-12-25T03:50:24.587Z,1004.82
2022-12-25T03:51:24.862Z,1004.83
2022-12-25T03:52:24.377Z,1004.82
2022-12-25T03:53:25.030Z,1004.82
2022-12-25T03:54:24.922Z,1004.72
2022-12-25T03:55:24.642Z,1004.68
2022-12-25T03:56:24.487Z,1004.69
2022-12-25T03:57:24.867Z,1004.68
2022-12-25T03:58:24.532Z,1004.65
2022-12-25T03:59:25.732Z,1004.61
2022-12-25T04:00:24.586Z,1004.66
2022-12-25T04:01:25.006Z,1004.65
2022-12-25T04:02:24.542Z,1004.59
2022-12-25T04:03:24.634Z,1004.6
2022-12-25T04:04:24.432Z,1004.61
2022-12-25T04:05:24.619Z,1004.61
2022-12-25T04:06:24.407Z,1004.62
2022-12-25T04:07:24.663Z,1004.57
2022-12-25T04:08:24.354Z,1004.52
2022-12-25T04:09:24.360Z,1004.47
2022-12-25T04:10:24.335Z,1004.46
2022-12-25T04:11:24.419Z,1004.46
2022-12-25T04:12:24.343Z,1004.43
2022-12-25T04:13:24.347Z,1004.43
2022-12-25T04:14:24.359Z,1004.5
2022-12-25T04:15:24.376Z,1004.52
2022-12-25T04:16:24.398Z,1004.56
2022-12-25T04:17:24.340Z,1004.52
2022-12-25T04:18:24.342Z,1004.48
2022-12-25T04:19:24.398Z,1004.48
2022-12-25T04:20:24.346Z,1004.46
2022-12-25T04:21:24.528Z,1004.41
2022-12-25T04:22:24.689Z,1004.35
2022-12-25T04:23:24.837Z,1004.33
2022-12-25T04:24:24.608Z,1004.27
2022-12-25T04:25:24.412Z,1004.27
2022-12-25T04:26:24.664Z,1004.2
2022-12-25T04:27:24.412Z,1004.19
2022-12-25T04:28:24.343Z,1004.23
2022-12-25T04:29:24.868Z,1004.18
2022-12-25T04:30:24.768Z,1004.2
2022-12-25T04:31:25.125Z,1004.22
2022-12-25T04:32:24.373Z,1004.29
2022-12-25T04:33:24.646Z,1004.31
2022-12-25T04:34:24.877Z,1004.3
2022-12-25T04:35:25.195Z,1004.32
2022-12-25T04:36:24.829Z,1004.34
2022-12-25T04:37:24.342Z,1004.39
2022-12-25T04:38:24.344Z,1004.43
2022-12-25T04:39:24.346Z,1004.45
2022-12-25T04:40:24.335Z,1004.48
2022-12-25T04:41:24.666Z,1004.47
2022-12-25T04:42:24.459Z,1004.54
2022-12-25T04:43:24.341Z,1004.58
2022-12-25T04:44:24.359Z,1004.64
2022-12-25T04:45:24.333Z,1004.6
2022-12-25T04:46:24.648Z,1004.57
2022-12-25T04:47:24.395Z,1004.59
2022-12-25T04:48:24.350Z,1004.57
2022-12-25T04:49:24.339Z,1004.59
2022-12-25T04:50:24.351Z,1004.6
2022-12-25T04:51:24.357Z,1004.58
2022-12-25T04:52:24.338Z,1004.59
2022-12-25T04:53:24.343Z,1004.54
2022-12-25T04:54:24.345Z,1004.54
2022-12-25T04:55:24.343Z,1004.52
2022-12-25T04:56:24.349Z,1004.57
2022-12-25T04:57:24.356Z,1004.52
2022-12-25T04:58:24.381Z,1004.57
2022-12-25T04:59:24.341Z,1004.58
2022-12-25T05:00:24.344Z,1004.59
2022-12-25T05:01:24.474Z,1004.54
2022-12-25T05:02:24.485Z,1004.52
2022-12-25T05:03:24.400Z,1004.55
2022-12-25T05:04:24.394Z,1004.51
2022-12-25T05:05:24.364Z,1004.53
2022-12-25T05:06:24.343Z,1004.57
2022-12-25T05:07:24.355Z,1004.56
2022-12-25T05:08:24.339Z,1004.54
2022-12-25T05:09:24.354Z,1004.54
2022-12-25T05:10:24.340Z,1004.48
2022-12-25T05:11:24.336Z,1004.48
2022-12-25T05:12:24.342Z,1004.47
2022-12-25T05:13:24.351Z,1004.48
2022-12-25T05:14:24.348Z,1004.43
2022-12-25T05:15:24.340Z,1004.42
2022-12-25T05:16:24.467Z,1004.4
2022-12-25T05:17:24.355Z,1004.34
2022-12-25T05:18:24.360Z,1004.36
2022-12-25T05:19:24.362Z,1004.31
2022-12-25T05:20:24.363Z,1004.29
2022-12-25T05:21:24.361Z,1004.28
2022-12-25T05:22:24.345Z,1004.31
2022-12-25T05:23:24.346Z,1004.3
2022-12-25T05:24:24.354Z,1004.29
2022-12-25T05:25:24.349Z,1004.27
2022-12-25T05:26:24.340Z,1004.24
2022-12-25T05:27:24.353Z,1004.26
2022-12-25T05:28:24.393Z,1004.24
2022-12-25T05:29:24.373Z,1004.26
2022-12-25T05:30:24.346Z,1004.23
2022-12-25T05:31:24.421Z,1004.2
2022-12-25T05:32:24.347Z,1004.22
2022-12-25T05:33:24.363Z,1004.21
2022-12-25T05:34:24.431Z,1004.23
2022-12-25T05:35:24.340Z,1004.25
2022-12-25T05:36:24.349Z,1004.25
2022-12-25T05:37:24.335Z,1004.26
2022-12-25T05:38:24.346Z,1004.26
2022-12-25T05:39:24.357Z,1004.27
2022-12-25T05:40:24.402Z,1004.32
2022-12-25T05:41:29.087Z,1004.32
2022-12-25T05:42:24.713Z,1004.31
2022-12-25T05:43:23.981Z,1004.29
2022-12-25T05:44:24.250Z,1004.25
2022-12-25T05:45:24.588Z,1004.27
2022-12-25T05:46:24.001Z,1004.21
2022-12-25T05:47:24.125Z,1004.21
2022-12-25T05:48:24.403Z,1004.21
2022-12-25T05:49:24.678Z,1004.2
2022-12-25T05:50:24.088Z,1004.21
2022-12-25T05:51:24.334Z,1004.2
2022-12-25T05:52:24.593Z,1004.22
2022-12-25T05:53:24.844Z,1004.15
2022-12-25T05:54:24.408Z,1004.16
2022-12-25T05:55:24.604Z,1004.17
2022-12-25T05:56:24.342Z,1004.14
2022-12-25T05:57:24.372Z,1004.12
2022-12-25T05:58:24.350Z,1004.12
2022-12-25T05:59:24.406Z,1004.06
2022-12-25T06:00:24.347Z,1004.07
2022-12-25T06:01:24.417Z,1004.05
2022-12-25T06:02:24.612Z,1004.04
2022-12-25T06:03:24.441Z,1004.03
2022-12-25T06:04:24.358Z,1004.03
2022-12-25T06:05:24.336Z,1004.05
2022-12-25T06:06:24.341Z,1004.03
2022-12-25T06:07:24.347Z,1004.06
2022-12-25T06:08:24.349Z,1004.08
2022-12-25T06:09:24.346Z,1004.06
2022-12-25T06:10:24.336Z,1004.07
2022-12-25T06:11:24.372Z,1004.03
2022-12-25T06:12:24.415Z,1004.03
2022-12-25T06:13:24.438Z,1004.03
2022-12-25T06:14:24.342Z,1004
2022-12-25T06:15:24.443Z,1003.97
2022-12-25T06:16:24.500Z,1003.98
2022-12-25T06:17:24.367Z,1003.95
2022-12-25T06:18:24.364Z,1003.96
2022-12-25T06:19:24.365Z,1003.97
2022-12-25T06:20:24.409Z,1003.94
2022-12-25T06:21:24.347Z,1003.96
2022-12-25T06:22:24.392Z,1003.97
2022-12-25T06:23:24.464Z,1003.98
2022-12-25T06:24:24.371Z,1003.9
2022-12-25T06:25:24.374Z,1003.92
2022-12-25T06:26:24.398Z,1003.86
2022-12-25T06:27:24.347Z,1003.9
2022-12-25T06:28:24.442Z,1003.87
2022-12-25T06:29:24.392Z,1003.89
2022-12-25T06:30:24.361Z,1003.9
2022-12-25T06:31:24.569Z,1003.93
2022-12-25T06:32:24.405Z,1003.91
2022-12-25T06:33:24.362Z,1003.89
2022-12-25T06:34:24.456Z,1003.89
2022-12-25T06:35:24.384Z,1003.91
2022-12-25T06:36:24.468Z,1003.86
2022-12-25T06:37:24.349Z,1003.89
2022-12-25T06:38:24.385Z,1003.84
2022-12-25T06:39:24.418Z,1003.81
2022-12-25T06:40:24.416Z,1003.84
2022-12-25T06:41:24.548Z,1003.78
2022-12-25T06:42:24.367Z,1003.78
2022-12-25T06:43:24.396Z,1003.75
2022-12-25T06:44:24.367Z,1003.77
2022-12-25T06:45:24.508Z,1003.83
2022-12-25T06:46:24.551Z,1003.73
2022-12-25T06:47:24.346Z,1003.69
2022-12-25T06:48:24.376Z,1003.71
2022-12-25T06:49:24.339Z,1003.75
2022-12-25T06:50:24.345Z,1003.76
2022-12-25T06:51:24.668Z,1003.77
2022-12-25T06:52:24.359Z,1003.78
2022-12-25T06:53:24.428Z,1003.75
2022-12-25T06:54:24.379Z,1003.73
2022-12-25T06:55:24.584Z,1003.71
2022-12-25T06:56:24.429Z,1003.69
2022-12-25T06:57:24.358Z,1003.68
2022-12-25T06:58:24.427Z,1003.64
2022-12-25T06:59:24.388Z,1003.61
2022-12-25T07:00:24.639Z,1003.64
2022-12-25T07:01:24.872Z,1003.63
2022-12-25T07:02:24.712Z,1003.6
2022-12-25T07:03:24.531Z,1003.57
2022-12-25T07:04:24.663Z,1003.56
2022-12-25T07:05:24.881Z,1003.49
2022-12-25T07:06:25.151Z,1003.44
2022-12-25T07:07:24.345Z,1003.44
2022-12-25T07:08:24.569Z,1003.41
2022-12-25T07:09:24.374Z,1003.42
2022-12-25T07:10:24.392Z,1003.37
2022-12-25T07:11:24.351Z,1003.37
2022-12-25T07:12:24.469Z,1003.36
2022-12-25T07:13:26.220Z,1003.4
2022-12-25T07:14:27.503Z,1003.46
2022-12-25T07:15:24.405Z,1003.43
2022-12-25T07:16:24.709Z,1003.48
2022-12-25T07:17:24.389Z,1003.53
2022-12-25T07:18:24.547Z,1003.51
2022-12-25T07:19:24.483Z,1003.46
2022-12-25T07:20:24.502Z,1003.47
2022-12-25T07:21:24.827Z,1003.39
2022-12-25T07:22:24.662Z,1003.44
2022-12-25T07:23:24.577Z,1003.42
2022-12-25T07:24:24.847Z,1003.43
2022-12-25T07:25:24.549Z,1003.43
2022-12-25T07:26:24.748Z,1003.46
2022-12-25T07:27:24.991Z,1003.44
2022-12-25T07:28:25.254Z,1003.54
2022-12-25T07:29:24.545Z,1003.46
2022-12-25T07:30:24.716Z,1003.43
2022-12-25T07:31:24.993Z,1003.38
2022-12-25T07:32:24.847Z,1003.35
2022-12-25T07:33:24.375Z,1003.33
2022-12-25T07:34:24.559Z,1003.28
2022-12-25T07:35:24.680Z,1003.24
2022-12-25T07:36:24.353Z,1003.23
2022-12-25T07:37:24.438Z,1003.19
2022-12-25T07:38:24.457Z,1003.17
2022-12-25T07:39:24.598Z,1003.14
2022-12-25T07:40:24.357Z,1003.14
2022-12-25T07:41:24.574Z,1003.15
2022-12-25T07:42:28.036Z,1003.2
2022-12-25T07:43:24.356Z,1003.2
2022-12-25T07:44:24.393Z,1003.26
2022-12-25T07:45:24.407Z,1003.25
2022-12-25T07:46:24.403Z,1003.2
2022-12-25T07:47:24.345Z,1003.18
2022-12-25T07:48:24.354Z,1003.12
2022-12-25T07:49:24.349Z,1003.1
2022-12-25T07:50:24.382Z,1003.12
2022-12-25T07:51:24.350Z,1003.11
2022-12-25T07:52:24.348Z,1003.14
2022-12-25T07:53:24.371Z,1003.19
2022-12-25T07:54:24.340Z,1003.23
2022-12-25T07:55:24.375Z,1003.21
2022-12-25T07:56:24.353Z,1003.18
2022-12-25T07:57:24.347Z,1003.27
2022-12-25T07:58:27.420Z,1003.32
2022-12-25T07:59:24.354Z,1003.31
2022-12-25T08:00:24.358Z,1003.32
2022-12-25T08:01:24.459Z,1003.31
2022-12-25T08:02:24.584Z,1003.29
2022-12-25T08:03:24.455Z,1003.31
2022-12-25T08:04:24.351Z,1003.26
2022-12-25T08:05:24.340Z,1003.18
2022-12-25T08:06:24.756Z,1003.17
2022-12-25T08:07:24.361Z,1003.14
2022-12-25T08:08:24.354Z,1003.15
2022-12-25T08:09:24.437Z,1003.08
2022-12-25T08:10:24.344Z,1003.1
2022-12-25T08:11:24.346Z,1003.1
2022-12-25T08:12:24.349Z,1003.14
2022-12-25T08:13:24.348Z,1003.15
2022-12-25T08:14:24.344Z,1003.26
2022-12-25T08:15:24.344Z,1003.27
2022-12-25T08:16:24.350Z,1003.29
2022-12-25T08:17:24.359Z,1003.26
2022-12-25T08:18:31.433Z,1003.23
2022-12-25T08:19:24.344Z,1003.22
2022-12-25T08:20:24.351Z,1003.17
2022-12-25T08:21:24.355Z,1003.17
2022-12-25T08:22:24.338Z,1003.2
2022-12-25T08:23:24.378Z,1003.13
2022-12-25T08:24:24.351Z,1003.16
2022-12-25T08:25:24.344Z,1003.08
2022-12-25T08:26:24.355Z,1003.06
2022-12-25T08:27:24.354Z,1003.06
2022-12-25T08:28:24.351Z,1003.05
2022-12-25T08:29:24.344Z,1003.01
2022-12-25T08:30:24.339Z,1003.02
2022-12-25T08:31:24.423Z,1003.03
2022-12-25T08:32:24.343Z,1003.01
2022-12-25T08:33:24.360Z,1003.01
2022-12-25T08:34:24.345Z,1002.97
2022-12-25T08:35:24.424Z,1002.95
2022-12-25T08:36:24.349Z,1002.93
2022-12-25T08:37:24.346Z,1002.84
2022-12-25T08:38:24.343Z,1002.86
2022-12-25T08:39:24.419Z,1002.88
2022-12-25T08:40:24.433Z,1002.94
2022-12-25T08:41:24.514Z,1002.9
2022-12-25T08:42:24.404Z,1002.92
2022-12-25T08:43:24.348Z,1002.9
2022-12-25T08:44:24.364Z,1002.91
2022-12-25T08:45:26.377Z,1002.87
2022-12-25T08:46:24.483Z,1002.85
2022-12-25T08:47:24.348Z,1002.81
2022-12-25T08:48:24.345Z,1002.85
2022-12-25T08:49:24.338Z,1002.82
2022-12-25T08:50:24.375Z,1002.83
2022-12-25T08:51:24.396Z,1002.83
2022-12-25T08:52:24.369Z,1002.9
2022-12-25T08:53:24.360Z,1002.9
2022-12-25T08:54:24.465Z,1002.92
2022-12-25T08:55:24.379Z,1002.94
2022-12-25T08:56:24.337Z,1002.93
2022-12-25T08:57:24.467Z,1002.88
2022-12-25T08:58:24.347Z,1002.84
2022-12-25T08:59:24.343Z,1002.77
2022-12-25T09:00:24.366Z,1002.75
2022-12-25T09:01:24.509Z,1002.74
2022-12-25T09:02:24.456Z,1002.78
2022-12-25T09:03:24.456Z,1002.77
2022-12-25T09:04:24.343Z,1002.75
2022-12-25T09:05:24.349Z,1002.71
2022-12-25T09:06:24.350Z,1002.7
2022-12-25T09:07:24.357Z,1002.72
2022-12-25T09:08:24.357Z,1002.7
2022-12-25T09:09:24.348Z,1002.7
2022-12-25T09:10:24.334Z,1002.76
2022-12-25T09:11:24.556Z,1002.8
2022-12-25T09:12:24.335Z,1002.78
2022-12-25T09:13:24.347Z,1002.75
2022-12-25T09:14:24.411Z,1002.77
2022-12-25T09:15:25.589Z,1002.7
2022-12-25T09:16:24.713Z,1002.68
2022-12-25T09:17:23.968Z,1002.64
2022-12-25T09:18:24.416Z,1002.6
2022-12-25T09:19:24.605Z,1002.56
2022-12-25T09:20:23.866Z,1002.54
2022-12-25T09:21:24.204Z,1002.6
2022-12-25T09:22:24.420Z,1002.65
2022-12-25T09:23:24.705Z,1002.73
2022-12-25T09:24:24.046Z,1002.87
2022-12-25T09:25:24.369Z,1002.97
2022-12-25T09:26:24.600Z,1003.05
2022-12-25T09:27:24.827Z,1003.06
2022-12-25T09:28:24.364Z,1003.06
2022-12-25T09:29:24.484Z,1003.08
2022-12-25T09:30:24.366Z,1003.09
2022-12-25T09:31:24.984Z,1003.12
2022-12-25T09:32:24.373Z,1003.16
2022-12-25T09:33:24.338Z,1003.17
2022-12-25T09:34:24.459Z,1003.12
2022-12-25T09:35:24.356Z,1003.11
2022-12-25T09:36:24.345Z,1003.1
2022-12-25T09:37:24.455Z,1003.03
2022-12-25T09:38:24.346Z,1002.96
2022-12-25T09:39:24.376Z,1002.88
2022-12-25T09:40:24.349Z,1002.84
2022-12-25T09:41:24.344Z,1002.81
2022-12-25T09:42:24.349Z,1002.8
2022-12-25T09:43:24.339Z,1002.72
2022-12-25T09:44:24.369Z,1002.61
2022-12-25T09:45:24.370Z,1002.59
2022-12-25T09:46:24.483Z,1002.57
2022-12-25T09:47:24.347Z,1002.57
2022-12-25T09:48:24.400Z,1002.57
2022-12-25T09:49:24.396Z,1002.51
2022-12-25T09:50:24.378Z,1002.48
2022-12-25T09:51:24.345Z,1002.46
2022-12-25T09:52:24.340Z,1002.5
2022-12-25T09:53:24.344Z,1002.49
2022-12-25T09:54:24.367Z,1002.53
2022-12-25T09:55:24.389Z,1002.54
2022-12-25T09:56:24.361Z,1002.54
2022-12-25T09:57:24.340Z,1002.54
2022-12-25T09:58:24.345Z,1002.56
2022-12-25T09:59:24.363Z,1002.59
2022-12-25T10:00:24.377Z,1002.59
2022-12-25T10:01:24.462Z,1002.54
2022-12-25T10:02:24.563Z,1002.57
2022-12-25T10:03:24.381Z,1002.56
2022-12-25T10:04:24.374Z,1002.64
2022-12-25T10:05:24.347Z,1002.65
2022-12-25T10:06:24.352Z,1002.66
2022-12-25T10:07:24.349Z,1002.7
2022-12-25T10:08:24.352Z,1002.75
2022-12-25T10:09:24.339Z,1002.78
2022-12-25T10:10:24.335Z,1002.76
2022-12-25T10:11:24.341Z,1002.73
2022-12-25T10:12:24.354Z,1002.68
2022-12-25T10:13:24.349Z,1002.69
2022-12-25T10:14:24.344Z,1002.76
2022-12-25T10:15:24.343Z,1002.8
2022-12-25T10:16:24.494Z,1002.82
2022-12-25T10:17:24.361Z,1002.82
2022-12-25T10:18:24.348Z,1002.76
2022-12-25T10:19:24.378Z,1002.75
2022-12-25T10:20:24.341Z,1002.72
2022-12-25T10:21:24.343Z,1002.73
2022-12-25T10:22:24.340Z,1002.83
2022-12-25T10:23:24.337Z,1002.86
2022-12-25T10:24:24.341Z,1002.86
2022-12-25T10:25:24.349Z,1002.83
2022-12-25T10:26:24.336Z,1002.85
2022-12-25T10:27:24.601Z,1002.87
2022-12-25T10:28:25.282Z,1002.89
2022-12-25T10:29:24.573Z,1002.91
2022-12-25T10:30:24.423Z,1002.94
2022-12-25T10:31:24.814Z,1002.92
2022-12-25T10:32:24.415Z,1002.94
2022-12-25T10:33:25.379Z,1002.91
2022-12-25T10:34:24.534Z,1002.94
2022-12-25T10:35:24.766Z,1002.92
2022-12-25T10:36:24.543Z,1002.94
2022-12-25T10:37:24.354Z,1002.92
2022-12-25T10:38:24.598Z,1002.97
2022-12-25T10:39:24.892Z,1002.97
2022-12-25T10:40:25.084Z,1002.95
2022-12-25T10:41:24.344Z,1002.9
2022-12-25T10:42:24.381Z,1002.86
2022-12-25T10:43:24.368Z,1002.81
2022-12-25T10:44:24.372Z,1002.83
2022-12-25T10:45:24.541Z,1002.75
2022-12-25T10:46:24.464Z,1002.69
2022-12-25T10:47:24.366Z,1002.63
2022-12-25T10:48:24.583Z,1002.6
2022-12-25T10:49:24.612Z,1002.57
2022-12-25T10:50:24.348Z,1002.51
2022-12-25T10:51:24.393Z,1002.49
2022-12-25T10:52:24.448Z,1002.39
2022-12-25T10:53:24.725Z,1002.31
2022-12-25T10:54:24.582Z,1002.31
2022-12-25T10:55:30.516Z,1002.29
2022-12-25T10:56:24.576Z,1002.24
2022-12-25T10:57:24.388Z,1002.19
2022-12-25T10:58:24.659Z,1002.09
2022-12-25T10:59:24.631Z,1002.08
2022-12-25T11:00:24.883Z,1002.06
2022-12-25T11:01:24.842Z,1002.09
2022-12-25T11:02:25.205Z,1002.06
2022-12-25T11:03:25.792Z,1002.08
2022-12-25T11:04:24.795Z,1002.09
2022-12-25T11:05:24.605Z,1002.09
2022-12-25T11:06:24.521Z,1002.07
2022-12-25T11:07:24.755Z,1002.05
2022-12-25T11:08:24.390Z,1002.06
2022-12-25T11:09:24.515Z,1002.08
2022-12-25T11:10:25.583Z,1002.07
2022-12-25T11:11:24.347Z,1002.07
2022-12-25T11:12:24.634Z,1002.1
2022-12-25T11:13:24.363Z,1002.16
2022-12-25T11:14:24.459Z,1002.16
2022-12-25T11:15:24.721Z,1002.19
2022-12-25T11:16:24.365Z,1002.17
2022-12-25T11:17:24.351Z,1002.17
2022-12-25T11:18:24.369Z,1002.12
2022-12-25T11:19:24.421Z,1002.12
2022-12-25T11:20:24.341Z,1002.1
2022-12-25T11:21:24.334Z,1002.13
2022-12-25T11:22:24.337Z,1002.04
2022-12-25T11:23:24.378Z,1002.01
2022-12-25T11:24:24.354Z,1001.98
2022-12-25T11:25:24.329Z,1001.92
2022-12-25T11:26:24.342Z,1001.92
2022-12-25T11:27:24.344Z,1001.9
2022-12-25T11:28:24.351Z,1001.83
2022-12-25T11:29:24.435Z,1001.83
2022-12-25T11:30:24.341Z,1001.78
2022-12-25T11:31:24.683Z,1001.78
2022-12-25T11:32:24.339Z,1001.74
2022-12-25T11:33:24.717Z,1001.72
2022-12-25T11:34:24.346Z,1001.72
2022-12-25T11:35:24.353Z,1001.72
2022-12-25T11:36:24.342Z,1001.71
2022-12-25T11:37:24.601Z,1001.69
2022-12-25T11:38:24.348Z,1001.69
2022-12-25T11:39:24.354Z,1001.61
2022-12-25T11:40:24.443Z,1001.6
2022-12-25T11:41:24.707Z,1001.58
2022-12-25T11:42:24.353Z,1001.62
2022-12-25T11:43:24.418Z,1001.58
2022-12-25T11:44:24.545Z,1001.61
2022-12-25T11:45:24.373Z,1001.59
2022-12-25T11:46:24.401Z,1001.55
2022-12-25T11:47:24.405Z,1001.51
2022-12-25T11:48:24.336Z,1001.52
2022-12-25T11:49:24.352Z,1001.55
2022-12-25T11:50:24.358Z,1001.52
2022-12-25T11:51:24.336Z,1001.49
2022-12-25T11:52:24.343Z,1001.45
2022-12-25T11:53:24.366Z,1001.36
2022-12-25T11:54:24.342Z,1001.34
2022-12-25T11:55:24.375Z,1001.32
2022-12-25T11:56:24.332Z,1001.35
2022-12-25T11:57:24.382Z,1001.35
2022-12-25T11:58:24.367Z,1001.34
2022-12-25T11:59:24.347Z,1001.3
2022-12-25T12:00:24.359Z,1001.23
2022-12-25T12:01:24.373Z,1001.25
2022-12-25T12:02:24.419Z,1001.19
2022-12-25T12:03:24.561Z,1001.13
2022-12-25T12:04:37.045Z,1001.09
2022-12-25T12:05:24.363Z,1001.02
2022-12-25T12:06:24.335Z,1001
2022-12-25T12:07:24.353Z,1001.01
2022-12-25T12:08:24.355Z,1000.96